sensor_id;sensor_type;location;lat;lon;timestamp;pressure;altitude;pressure_sealevel;temperature;humidity
2549;BME280;1284;53.520;10.248;2023-02-12T00:00:30;102767.31;;;9.22;100.00
2549;BME280;1284;53.520;10.248;2023-02-12T00:02:55;102772.91;;;9.44;100.00
2549;BME280;1284;53.520;10.248;2023-02-12T00:05:21;102772.78;;;9.49;100.00
2549;BME280;1284;53.520;10.248;2023-02-12T00:07:46;102768.56;;;9.29;100.00
2549;BME280;1284;53.520;10.248;2023-02-12T00:10:12;102769.75;;;9.23;100.00
2549;BME280;1284;53.520;10.248;2023-02-12T00:12:37;102786.44;;;9.39;100.00
2549;BME280;1284;53.520;10.248;2023-02-12T00:15:03;102795.41;;;9.48;100.00
2549;BME280;1284;53.520;10.248;2023-02-12T00:17:29;102791.94;;;9.47;100.00
2549;BME280;1284;53.520;10.248;2023-02-12T00:19:54;102796.09;;;9.40;100.00
2549;BME280;1284;53.520;10.248;2023-02-12T00:22:20;102794.53;;;9.52;100.00
2549;BME280;1284;53.520;10.248;2023-02-12T00:24:45;102797.53;;;9.64;100.00
2549;BME280;1284;53.520;10.248;2023-02-12T00:27:11;102790.72;;;9.40;100.00
2549;BME280;1284;53.520;10.248;2023-02-12T00:29:36;102801.97;;;9.42;100.00
2549;BME280;1284;53.520;10.248;2023-02-12T00:32:09;102795.59;;;9.38;100.00
2549;BME280;1284;53.520;10.248;2023-02-12T00:34:35;102797.34;;;9.29;100.00
2549;BME280;1284;53.520;10.248;2023-02-12T00:37:00;102805.25;;;9.39;100.00
2549;BME280;1284;53.520;10.248;2023-02-12T00:39:26;102807.53;;;9.64;100.00
2549;BME280;1284;53.520;10.248;2023-02-12T00:41:51;102807.44;;;9.69;100.00
2549;BME280;1284;53.520;10.248;2023-02-12T00:44:17;102809.31;;;9.36;100.00
2549;BME280;1284;53.520;10.248;2023-02-12T00:46:42;102804.13;;;9.07;100.00
2549;BME280;1284;53.520;10.248;2023-02-12T00:49:08;102808.09;;;9.29;100.00
2549;BME280;1284;53.520;10.248;2023-02-12T00:51:33;102810.34;;;9.22;100.00
2549;BME280;1284;53.520;10.248;2023-02-12T00:53:59;102799.06;;;9.20;100.00
2549;BME280;1284;53.520;10.248;2023-02-12T00:56:24;102799.03;;;8.87;100.00
2549;BME280;1284;53.520;10.248;2023-02-12T00:58:50;102795.91;;;8.99;100.00
2549;BME280;1284;53.520;10.248;2023-02-12T01:01:16;102801.06;;;8.95;100.00
2549;BME280;1284;53.520;10.248;2023-02-12T01:03:41;102797.63;;;9.27;100.00
2549;BME280;1284;53.520;10.248;2023-02-12T01:06:07;102803.78;;;9.28;100.00
2549;BME280;1284;53.520;10.248;2023-02-12T01:08:33;102809.72;;;9.11;100.00
2549;BME280;1284;53.520;10.248;2023-02-12T01:11:00;102807.50;;;9.32;100.00
2549;BME280;1284;53.520;10.248;2023-02-12T01:13:28;102813.47;;;9.10;100.00
2549;BME280;1284;53.520;10.248;2023-02-12T01:16:22;102812.53;;;9.20;100.00
2549;BME280;1284;53.520;10.248;2023-02-12T01:18:49;102809.00;;;9.05;100.00
2549;BME280;1284;53.520;10.248;2023-02-12T01:21:19;102810.06;;;9.23;100.00
2549;BME280;1284;53.520;10.248;2023-02-12T01:23:45;102808.91;;;9.10;100.00
2549;BME280;1284;53.520;10.248;2023-02-12T01:26:12;102808.91;;;9.10;100.00
2549;BME280;1284;53.520;10.248;2023-02-12T01:28:39;102813.72;;;9.14;100.00
2549;BME280;1284;53.520;10.248;2023-02-12T01:31:15;102817.03;;;9.05;100.00
2549;BME280;1284;53.520;10.248;2023-02-12T01:33:42;102820.34;;;8.79;100.00
2549;BME280;1284;53.520;10.248;2023-02-12T01:36:10;102823.59;;;8.99;100.00
2549;BME280;1284;53.520;10.248;2023-02-12T01:38:35;102817.03;;;9.24;100.00
2549;BME280;1284;53.520;10.248;2023-02-12T01:41:10;102820.81;;;9.04;100.00
2549;BME280;1284;53.520;10.248;2023-02-12T01:43:37;102819.09;;;9.14;100.00
2549;BME280;1284;53.520;10.248;2023-02-12T01:46:04;102815.22;;;9.20;100.00
2549;BME280;1284;53.520;10.248;2023-02-12T01:48:33;102816.88;;;9.16;100.00
2549;BME280;1284;53.520;10.248;2023-02-12T01:51:00;102826.19;;;9.04;100.00
2549;BME280;1284;53.520;10.248;2023-02-12T01:53:34;102835.78;;;9.10;100.00
2549;BME280;1284;53.520;10.248;2023-02-12T01:56:01;102824.88;;;9.21;100.00
2549;BME280;1284;53.520;10.248;2023-02-12T01:58:30;102830.06;;;9.17;100.00
2549;BME280;1284;53.520;10.248;2023-02-12T02:01:01;102829.72;;;9.37;100.00
2549;BME280;1284;53.520;10.248;2023-02-12T02:03:30;102841.38;;;9.33;100.00
2549;BME280;1284;53.520;10.248;2023-02-12T02:06:01;102827.19;;;9.27;100.00
2549;BME280;1284;53.520;10.248;2023-02-12T02:08:28;102835.22;;;9.14;100.00
2549;BME280;1284;53.520;10.248;2023-02-12T02:10:54;102831.25;;;9.06;100.00
2549;BME280;1284;53.520;10.248;2023-02-12T02:13:20;102837.91;;;9.14;100.00
2549;BME280;1284;53.520;10.248;2023-02-12T02:16:24;102829.97;;;9.22;100.00
2549;BME280;1284;53.520;10.248;2023-02-12T02:19:49;102824.50;;;9.27;100.00
2549;BME280;1284;53.520;10.248;2023-02-12T02:24:58;102834.09;;;9.33;100.00
2549;BME280;1284;53.520;10.248;2023-02-12T02:39:00;102848.50;;;9.42;100.00
2549;BME280;1284;53.520;10.248;2023-02-12T02:43:55;102847.19;;;9.40;100.00
2549;BME280;1284;53.520;10.248;2023-02-12T02:46:52;102844.06;;;9.33;100.00
2549;BME280;1284;53.520;10.248;2023-02-12T02:49:30;102851.16;;;9.24;100.00
2549;BME280;1284;53.520;10.248;2023-02-12T02:52:02;102837.81;;;9.19;100.00
2549;BME280;1284;53.520;10.248;2023-02-12T02:54:32;102845.38;;;9.17;100.00
2549;BME280;1284;53.520;10.248;2023-02-12T02:57:05;102835.69;;;9.16;100.00
2549;BME280;1284;53.520;10.248;2023-02-12T02:59:36;102846.22;;;8.93;100.00
2549;BME280;1284;53.520;10.248;2023-02-12T03:02:11;102847.47;;;9.01;100.00
2549;BME280;1284;53.520;10.248;2023-02-12T03:04:42;102847.69;;;9.04;100.00
2549;BME280;1284;53.520;10.248;2023-02-12T03:07:18;102846.91;;;9.23;100.00
2549;BME280;1284;53.520;10.248;2023-02-12T03:09:49;102853.00;;;9.28;100.00
2549;BME280;1284;53.520;10.248;2023-02-12T03:12:30;102844.84;;;9.33;100.00
2549;BME280;1284;53.520;10.248;2023-02-12T03:15:02;102852.56;;;9.40;100.00
2549;BME280;1284;53.520;10.248;2023-02-12T03:17:34;102852.50;;;9.07;100.00
2549;BME280;1284;53.520;10.248;2023-02-12T03:20:07;102858.81;;;9.17;100.00
2549;BME280;1284;53.520;10.248;2023-02-12T03:22:36;102849.94;;;9.35;100.00
2549;BME280;1284;53.520;10.248;2023-02-12T03:25:09;102868.53;;;9.31;100.00
2549;BME280;1284;53.520;10.248;2023-02-12T03:27:46;102871.50;;;9.30;100.00
2549;BME280;1284;53.520;10.248;2023-02-12T03:30:14;102864.03;;;9.45;100.00
2549;BME280;1284;53.520;10.248;2023-02-12T03:35:37;102858.44;;;9.42;100.00
2549;BME280;1284;53.520;10.248;2023-02-12T03:40:56;102866.00;;;9.21;100.00
2549;BME280;1284;53.520;10.248;2023-02-12T03:43:29;102869.13;;;9.28;100.00
2549;BME280;1284;53.520;10.248;2023-02-12T03:46:08;102881.34;;;9.21;100.00
2549;BME280;1284;53.520;10.248;2023-02-12T03:48:40;102874.16;;;9.35;100.00
2549;BME280;1284;53.520;10.248;2023-02-12T03:51:27;102881.81;;;9.04;100.00
2549;BME280;1284;53.520;10.248;2023-02-12T03:53:55;102890.34;;;9.30;100.00
2549;BME280;1284;53.520;10.248;2023-02-12T03:56:26;102892.50;;;9.28;100.00
2549;BME280;1284;53.520;10.248;2023-02-12T03:58:53;102892.50;;;9.09;100.00
2549;BME280;1284;53.520;10.248;2023-02-12T04:01:18;102891.91;;;9.12;100.00
2549;BME280;1284;53.520;10.248;2023-02-12T04:03:45;102893.88;;;9.06;100.00
2549;BME280;1284;53.520;10.248;2023-02-12T04:06:36;102902.03;;;9.20;100.00
2549;BME280;1284;53.520;10.248;2023-02-12T04:09:08;102897.66;;;9.43;100.00
2549;BME280;1284;53.520;10.248;2023-02-12T04:14:28;102900.13;;;9.02;100.00
2549;BME280;1284;53.520;10.248;2023-02-12T04:17:08;102904.13;;;9.04;100.00
2549;BME280;1284;53.520;10.248;2023-02-12T04:26:19;102899.38;;;9.39;100.00
2549;BME280;1284;53.520;10.248;2023-02-12T04:31:30;102894.84;;;9.34;100.00
2549;BME280;1284;53.520;10.248;2023-02-12T04:36:38;102911.84;;;9.30;100.00
2549;BME280;1284;53.520;10.248;2023-02-12T04:39:12;102911.47;;;9.18;100.00
2549;BME280;1284;53.520;10.248;2023-02-12T04:41:40;102916.94;;;9.31;100.00
2549;BME280;1284;53.520;10.248;2023-02-12T04:44:32;102925.03;;;9.50;100.00
2549;BME280;1284;53.520;10.248;2023-02-12T04:46:59;102919.84;;;9.53;100.00
2549;BME280;1284;53.520;10.248;2023-02-12T04:49:25;102928.44;;;9.55;100.00
2549;BME280;1284;53.520;10.248;2023-02-12T04:51:50;102927.09;;;9.53;100.00
2549;BME280;1284;53.520;10.248;2023-02-12T04:54:17;102925.88;;;9.45;100.00
2549;BME280;1284;53.520;10.248;2023-02-12T04:56:44;102919.19;;;9.43;100.00
2549;BME280;1284;53.520;10.248;2023-02-12T05:01:56;102928.22;;;9.52;100.00
2549;BME280;1284;53.520;10.248;2023-02-12T05:04:21;102929.06;;;9.66;100.00
2549;BME280;1284;53.520;10.248;2023-02-12T05:06:46;102931.19;;;9.69;100.00
2549;BME280;1284;53.520;10.248;2023-02-12T05:09:16;102927.13;;;9.71;100.00
2549;BME280;1284;53.520;10.248;2023-02-12T05:11:43;102931.69;;;9.71;100.00
2549;BME280;1284;53.520;10.248;2023-02-12T05:14:08;102933.00;;;9.73;100.00
2549;BME280;1284;53.520;10.248;2023-02-12T05:16:34;102932.91;;;9.78;100.00
2549;BME280;1284;53.520;10.248;2023-02-12T05:18:59;102936.78;;;9.72;100.00
2549;BME280;1284;53.520;10.248;2023-02-12T05:21:25;102940.28;;;9.73;100.00
2549;BME280;1284;53.520;10.248;2023-02-12T05:23:51;102932.13;;;9.78;100.00
2549;BME280;1284;53.520;10.248;2023-02-12T05:26:19;102925.66;;;9.79;100.00
2549;BME280;1284;53.520;10.248;2023-02-12T05:28:45;102930.03;;;9.75;100.00
2549;BME280;1284;53.520;10.248;2023-02-12T05:31:14;102934.03;;;9.77;100.00
2549;BME280;1284;53.520;10.248;2023-02-12T05:33:44;102925.72;;;9.74;100.00
2549;BME280;1284;53.520;10.248;2023-02-12T05:36:19;102925.22;;;9.72;100.00
2549;BME280;1284;53.520;10.248;2023-02-12T05:38:45;102925.28;;;9.67;100.00
2549;BME280;1284;53.520;10.248;2023-02-12T05:41:13;102923.19;;;9.64;100.00
2549;BME280;1284;53.520;10.248;2023-02-12T05:43:39;102924.69;;;9.70;100.00
2549;BME280;1284;53.520;10.248;2023-02-12T05:46:06;102923.13;;;9.69;100.00
2549;BME280;1284;53.520;10.248;2023-02-12T05:48:32;102928.91;;;9.76;100.00
2549;BME280;1284;53.520;10.248;2023-02-12T05:51:10;102945.66;;;9.73;100.00
2549;BME280;1284;53.520;10.248;2023-02-12T05:53:37;102944.56;;;9.74;100.00
2549;BME280;1284;53.520;10.248;2023-02-12T05:56:23;102937.50;;;9.78;100.00
2549;BME280;1284;53.520;10.248;2023-02-12T05:58:54;102943.09;;;9.81;100.00
2549;BME280;1284;53.520;10.248;2023-02-12T06:01:21;102955.59;;;9.72;100.00
2549;BME280;1284;53.520;10.248;2023-02-12T06:03:47;102950.03;;;9.69;100.00
2549;BME280;1284;53.520;10.248;2023-02-12T06:06:13;102949.16;;;9.73;100.00
2549;BME280;1284;53.520;10.248;2023-02-12T06:08:38;102948.25;;;9.78;100.00
2549;BME280;1284;53.520;10.248;2023-02-12T06:11:07;102953.28;;;9.66;100.00
2549;BME280;1284;53.520;10.248;2023-02-12T06:13:34;102960.19;;;9.72;100.00
2549;BME280;1284;53.520;10.248;2023-02-12T06:16:00;102958.66;;;9.66;100.00
2549;BME280;1284;53.520;10.248;2023-02-12T06:18:26;102959.91;;;9.73;100.00
2549;BME280;1284;53.520;10.248;2023-02-12T06:20:52;102963.47;;;9.69;100.00
2549;BME280;1284;53.520;10.248;2023-02-12T06:23:24;102961.78;;;9.73;100.00
2549;BME280;1284;53.520;10.248;2023-02-12T06:25:53;102964.50;;;9.73;100.00
2549;BME280;1284;53.520;10.248;2023-02-12T06:28:19;102966.00;;;9.79;100.00
2549;BME280;1284;53.520;10.248;2023-02-12T06:30:44;102962.81;;;9.77;100.00
2549;BME280;1284;53.520;10.248;2023-02-12T06:33:10;102961.00;;;9.72;100.00
2549;BME280;1284;53.520;10.248;2023-02-12T06:35:36;102953.78;;;9.68;100.00
2549;BME280;1284;53.520;10.248;2023-02-12T06:38:02;102956.13;;;9.74;100.00
2549;BME280;1284;53.520;10.248;2023-02-12T06:40:28;102958.91;;;9.69;100.00
2549;BME280;1284;53.520;10.248;2023-02-12T06:42:53;102953.13;;;9.76;100.00
2549;BME280;1284;53.520;10.248;2023-02-12T06:45:19;102961.72;;;9.78;100.00
2549;BME280;1284;53.520;10.248;2023-02-12T06:47:44;102958.81;;;9.74;100.00
2549;BME280;1284;53.520;10.248;2023-02-12T06:50:10;102969.34;;;9.71;100.00
2549;BME280;1284;53.520;10.248;2023-02-12T06:52:36;102968.84;;;9.69;100.00
2549;BME280;1284;53.520;10.248;2023-02-12T06:55:02;102979.31;;;9.70;100.00
2549;BME280;1284;53.520;10.248;2023-02-12T06:57:28;102987.53;;;9.79;100.00
2549;BME280;1284;53.520;10.248;2023-02-12T06:59:54;102991.25;;;9.83;100.00
2549;BME280;1284;53.520;10.248;2023-02-12T07:02:20;102985.38;;;9.81;100.00
2549;BME280;1284;53.520;10.248;2023-02-12T07:04:46;102993.50;;;9.94;100.00
2549;BME280;1284;53.520;10.248;2023-02-12T07:07:11;102994.97;;;9.87;100.00
2549;BME280;1284;53.520;10.248;2023-02-12T07:09:37;102993.94;;;9.83;100.00
2549;BME280;1284;53.520;10.248;2023-02-12T07:12:02;103006.75;;;9.91;100.00
2549;BME280;1284;53.520;10.248;2023-02-12T07:14:28;103004.13;;;9.86;100.00
2549;BME280;1284;53.520;10.248;2023-02-12T07:19:20;102996.63;;;9.83;100.00
2549;BME280;1284;53.520;10.248;2023-02-12T07:21:46;103005.13;;;9.90;100.00
2549;BME280;1284;53.520;10.248;2023-02-12T07:24:12;102999.59;;;10.00;100.00
2549;BME280;1284;53.520;10.248;2023-02-12T07:26:39;103000.34;;;9.87;100.00
2549;BME280;1284;53.520;10.248;2023-02-12T07:29:04;103005.78;;;9.82;100.00
2549;BME280;1284;53.520;10.248;2023-02-12T07:31:30;103007.16;;;9.79;100.00
2549;BME280;1284;53.520;10.248;2023-02-12T07:33:57;103011.09;;;9.87;100.00
2549;BME280;1284;53.520;10.248;2023-02-12T07:36:24;103009.13;;;9.92;100.00
2549;BME280;1284;53.520;10.248;2023-02-12T07:38:50;103006.50;;;9.87;100.00
2549;BME280;1284;53.520;10.248;2023-02-12T07:41:20;103003.81;;;9.87;100.00
2549;BME280;1284;53.520;10.248;2023-02-12T07:43:48;103000.91;;;9.84;100.00
2549;BME280;1284;53.520;10.248;2023-02-12T07:46:16;103005.88;;;9.77;100.00
2549;BME280;1284;53.520;10.248;2023-02-12T07:48:43;103004.13;;;9.86;100.00
2549;BME280;1284;53.520;10.248;2023-02-12T07:51:11;103000.09;;;9.83;100.00
2549;BME280;1284;53.520;10.248;2023-02-12T07:53:37;103011.16;;;9.82;100.00
2549;BME280;1284;53.520;10.248;2023-02-12T07:56:14;103018.09;;;9.69;100.00
2549;BME280;1284;53.520;10.248;2023-02-12T07:58:41;103027.69;;;9.75;100.00
2549;BME280;1284;53.520;10.248;2023-02-12T08:03:41;103026.72;;;9.66;100.00
2549;BME280;1284;53.520;10.248;2023-02-12T08:06:08;103024.31;;;9.65;100.00
2549;BME280;1284;53.520;10.248;2023-02-12T08:08:34;103025.44;;;9.82;100.00
2549;BME280;1284;53.520;10.248;2023-02-12T08:10:59;103019.31;;;9.95;100.00
2549;BME280;1284;53.520;10.248;2023-02-12T08:13:25;103020.13;;;9.96;100.00
2549;BME280;1284;53.520;10.248;2023-02-12T08:15:58;103021.56;;;9.88;100.00
2549;BME280;1284;53.520;10.248;2023-02-12T08:18:24;103023.88;;;9.95;100.00
2549;BME280;1284;53.520;10.248;2023-02-12T08:20:49;103027.59;;;9.99;100.00
2549;BME280;1284;53.520;10.248;2023-02-12T08:23:15;103036.56;;;9.94;100.00
2549;BME280;1284;53.520;10.248;2023-02-12T08:25:40;103039.03;;;9.91;100.00
2549;BME280;1284;53.520;10.248;2023-02-12T08:28:06;103034.28;;;10.01;100.00
2549;BME280;1284;53.520;10.248;2023-02-12T08:30:31;103040.72;;;9.87;100.00
2549;BME280;1284;53.520;10.248;2023-02-12T08:32:56;103044.34;;;9.77;100.00
2549;BME280;1284;53.520;10.248;2023-02-12T08:35:22;103052.91;;;9.79;100.00
2549;BME280;1284;53.520;10.248;2023-02-12T08:37:47;103046.69;;;10.02;100.00
2549;BME280;1284;53.520;10.248;2023-02-12T08:40:13;103043.75;;;9.99;100.00
2549;BME280;1284;53.520;10.248;2023-02-12T08:42:38;103049.81;;;10.10;100.00
2549;BME280;1284;53.520;10.248;2023-02-12T08:45:04;103050.88;;;10.09;100.00
2549;BME280;1284;53.520;10.248;2023-02-12T08:47:29;103053.75;;;10.17;100.00
2549;BME280;1284;53.520;10.248;2023-02-12T08:49:55;103055.47;;;10.27;100.00
2549;BME280;1284;53.520;10.248;2023-02-12T08:52:20;103055.53;;;10.03;100.00
2549;BME280;1284;53.520;10.248;2023-02-12T08:54:46;103057.06;;;10.09;100.00
2549;BME280;1284;53.520;10.248;2023-02-12T08:57:11;103049.72;;;10.15;100.00
2549;BME280;1284;53.520;10.248;2023-02-12T08:59:36;103056.09;;;10.24;100.00
2549;BME280;1284;53.520;10.248;2023-02-12T09:02:02;103060.16;;;10.21;100.00
2549;BME280;1284;53.520;10.248;2023-02-12T09:04:32;103062.41;;;10.33;100.00
2549;BME280;1284;53.520;10.248;2023-02-12T09:07:00;103062.69;;;10.31;100.00
2549;BME280;1284;53.520;10.248;2023-02-12T09:09:25;103071.06;;;10.30;100.00
2549;BME280;1284;53.520;10.248;2023-02-12T09:11:51;103071.50;;;10.18;100.00
2549;BME280;1284;53.520;10.248;2023-02-12T09:14:17;103072.28;;;10.19;100.00
2549;BME280;1284;53.520;10.248;2023-02-12T09:16:47;103071.44;;;10.23;100.00
2549;BME280;1284;53.520;10.248;2023-02-12T09:19:13;103079.41;;;10.28;100.00
2549;BME280;1284;53.520;10.248;2023-02-12T09:21:40;103068.78;;;10.37;100.00
2549;BME280;1284;53.520;10.248;2023-02-12T09:24:06;103076.94;;;10.32;100.00
2549;BME280;1284;53.520;10.248;2023-02-12T09:26:31;103073.06;;;10.38;100.00
2549;BME280;1284;53.520;10.248;2023-02-12T09:28:57;103073.88;;;10.38;100.00
2549;BME280;1284;53.520;10.248;2023-02-12T09:31:25;103085.16;;;10.40;100.00
2549;BME280;1284;53.520;10.248;2023-02-12T09:33:53;103081.16;;;10.38;100.00
2549;BME280;1284;53.520;10.248;2023-02-12T09:36:19;103082.78;;;10.39;100.00
2549;BME280;1284;53.520;10.248;2023-02-12T09:38:45;103079.28;;;10.38;100.00
2549;BME280;1284;53.520;10.248;2023-02-12T09:46:54;103091.72;;;10.34;100.00
2549;BME280;1284;53.520;10.248;2023-02-12T09:52:16;103106.81;;;10.35;100.00
2549;BME280;1284;53.520;10.248;2023-02-12T09:54:43;103102.78;;;10.33;100.00
2549;BME280;1284;53.520;10.248;2023-02-12T09:57:33;103102.94;;;10.41;100.00
2549;BME280;1284;53.520;10.248;2023-02-12T10:02:43;103101.25;;;10.27;100.00
2549;BME280;1284;53.520;10.248;2023-02-12T10:05:18;103105.41;;;10.56;100.00
2549;BME280;1284;53.520;10.248;2023-02-12T10:13:21;103111.28;;;10.40;100.00
2549;BME280;1284;53.520;10.248;2023-02-12T10:16:31;103109.56;;;10.49;100.00
2549;BME280;1284;53.520;10.248;2023-02-12T10:21:49;103107.44;;;10.64;100.00
2549;BME280;1284;53.520;10.248;2023-02-12T10:26:57;103110.84;;;10.70;100.00
2549;BME280;1284;53.520;10.248;2023-02-12T10:29:28;103116.63;;;10.77;100.00
2549;BME280;1284;53.520;10.248;2023-02-12T10:32:33;103115.06;;;10.76;100.00
2549;BME280;1284;53.520;10.248;2023-02-12T10:34:51;103110.13;;;10.64;100.00
2549;BME280;1284;53.520;10.248;2023-02-12T10:37:34;103105.91;;;10.40;100.00
2549;BME280;1284;53.520;10.248;2023-02-12T10:40:12;103104.03;;;10.40;100.00
2549;BME280;1284;53.520;10.248;2023-02-12T10:42:42;103108.84;;;10.25;100.00
2549;BME280;1284;53.520;10.248;2023-02-12T10:45:14;103105.69;;;10.36;100.00
2549;BME280;1284;53.520;10.248;2023-02-12T10:47:41;103106.81;;;10.35;100.00
2549;BME280;1284;53.520;10.248;2023-02-12T10:50:20;103103.41;;;10.43;100.00
2549;BME280;1284;53.520;10.248;2023-02-12T10:52:53;103104.00;;;10.59;100.00
2549;BME280;1284;53.520;10.248;2023-02-12T10:55:29;103086.69;;;10.46;100.00
2549;BME280;1284;53.520;10.248;2023-02-12T10:57:56;103098.91;;;10.57;100.00
2549;BME280;1284;53.520;10.248;2023-02-12T11:00:25;103099.75;;;10.39;100.00
2549;BME280;1284;53.520;10.248;2023-02-12T11:03:19;103091.25;;;10.64;100.00
2549;BME280;1284;53.520;10.248;2023-02-12T11:05:46;103097.88;;;10.72;100.00
2549;BME280;1284;53.520;10.248;2023-02-12T11:08:32;103087.44;;;10.65;100.00
2549;BME280;1284;53.520;10.248;2023-02-12T11:11:13;103087.97;;;10.67;100.00
2549;BME280;1284;53.520;10.248;2023-02-12T11:13:45;103084.75;;;10.65;100.00
2549;BME280;1284;53.520;10.248;2023-02-12T11:16:13;103088.63;;;10.59;100.00
2549;BME280;1284;53.520;10.248;2023-02-12T11:18:41;103077.44;;;10.52;100.00
2549;BME280;1284;53.520;10.248;2023-02-12T11:21:09;103087.72;;;10.50;100.00
2549;BME280;1284;53.520;10.248;2023-02-12T11:23:37;103080.50;;;10.46;100.00
2549;BME280;1284;53.520;10.248;2023-02-12T11:26:22;103085.53;;;10.52;100.00
2549;BME280;1284;53.520;10.248;2023-02-12T11:29:15;103079.22;;;10.75;100.00
2549;BME280;1284;53.520;10.248;2023-02-12T11:31:41;103079.22;;;10.75;100.00
2549;BME280;1284;53.520;10.248;2023-02-12T11:34:15;103086.47;;;10.75;100.00
2549;BME280;1284;53.520;10.248;2023-02-12T11:39:32;103081.81;;;10.80;100.00
2549;BME280;1284;53.520;10.248;2023-02-12T11:44:33;103070.00;;;10.76;100.00
2549;BME280;1284;53.520;10.248;2023-02-12T11:47:02;103080.09;;;10.71;100.00
2549;BME280;1284;53.520;10.248;2023-02-12T11:49:37;103078.75;;;10.68;100.00
2549;BME280;1284;53.520;10.248;2023-02-12T11:52:04;103072.69;;;10.76;100.00
2549;BME280;1284;53.520;10.248;2023-02-12T11:54:38;103066.09;;;10.69;100.00
2549;BME280;1284;53.520;10.248;2023-02-12T11:57:05;103070.00;;;10.76;100.00
2549;BME280;1284;53.520;10.248;2023-02-12T11:59:35;103066.75;;;10.93;100.00
2549;BME280;1284;53.520;10.248;2023-02-12T12:02:14;103067.56;;;11.07;100.00
2549;BME280;1284;53.520;10.248;2023-02-12T12:04:43;103075.25;;;11.00;100.00
2549;BME280;1284;53.520;10.248;2023-02-12T12:07:29;103067.28;;;11.09;100.00
2549;BME280;1284;53.520;10.248;2023-02-12T12:10:04;103065.59;;;11.13;100.00
2549;BME280;1284;53.520;10.248;2023-02-12T12:15:01;103063.69;;;11.27;100.00
2549;BME280;1284;53.520;10.248;2023-02-12T12:17:55;103059.91;;;11.14;100.00
2549;BME280;1284;53.520;10.248;2023-02-12T12:20:51;103069.56;;;11.02;100.00
2549;BME280;1284;53.520;10.248;2023-02-12T12:23:29;103058.38;;;11.08;100.00
2549;BME280;1284;53.520;10.248;2023-02-12T12:26:00;103051.59;;;11.11;100.00
2549;BME280;1284;53.520;10.248;2023-02-12T12:48:09;103041.72;;;11.20;100.00
2549;BME280;1284;53.520;10.248;2023-02-12T12:53:23;103038.00;;;10.88;100.00
2549;BME280;1284;53.520;10.248;2023-02-12T12:59:03;103024.16;;;11.09;100.00
2549;BME280;1284;53.520;10.248;2023-02-12T13:15:35;103015.94;;;11.14;100.00
2549;BME280;1284;53.520;10.248;2023-02-12T13:20:59;103018.25;;;11.07;100.00
2549;BME280;1284;53.520;10.248;2023-02-12T13:23:53;103020.25;;;11.15;100.00
2549;BME280;1284;53.520;10.248;2023-02-12T13:29:21;103020.13;;;10.93;100.00
2549;BME280;1284;53.520;10.248;2023-02-12T13:31:54;103014.63;;;10.98;100.00
2549;BME280;1284;53.520;10.248;2023-02-12T13:34:21;103017.81;;;11.00;100.00
2549;BME280;1284;53.520;10.248;2023-02-12T13:36:51;103007.84;;;11.14;100.00
2549;BME280;1284;53.520;10.248;2023-02-12T13:39:37;103017.25;;;11.16;100.00
2549;BME280;1284;53.520;10.248;2023-02-12T13:42:27;103015.94;;;11.14;100.00
2549;BME280;1284;53.520;10.248;2023-02-12T13:45:55;103014.34;;;10.99;100.00
2549;BME280;1284;53.520;10.248;2023-02-12T13:53:02;103004.31;;;10.72;100.00
2549;BME280;1284;53.520;10.248;2023-02-12T13:55:42;103011.81;;;10.75;100.00
2549;BME280;1284;53.520;10.248;2023-02-12T14:01:08;103007.13;;;10.81;100.00
2549;BME280;1284;53.520;10.248;2023-02-12T14:06:21;103004.56;;;10.89;100.00
2549;BME280;1284;53.520;10.248;2023-02-12T14:09:08;103006.84;;;10.82;100.00
2549;BME280;1284;53.520;10.248;2023-02-12T14:11:46;102998.25;;;10.94;100.00
2549;BME280;1284;53.520;10.248;2023-02-12T14:14:24;102987.66;;;10.98;100.00
2549;BME280;1284;53.520;10.248;2023-02-12T14:16:51;102997.25;;;10.90;100.00
2549;BME280;1284;53.520;10.248;2023-02-12T14:22:12;102991.88;;;11.04;100.00
2549;BME280;1284;53.520;10.248;2023-02-12T14:24:46;102998.69;;;11.01;100.00
2549;BME280;1284;53.520;10.248;2023-02-12T14:27:33;103000.97;;;10.94;100.00
2549;BME280;1284;53.520;10.248;2023-02-12T14:37:52;103009.56;;;11.10;100.00
2549;BME280;1284;53.520;10.248;2023-02-12T14:43:17;103002.44;;;10.73;100.00
2549;BME280;1284;53.520;10.248;2023-02-12T14:45:48;102993.47;;;11.05;100.00
2549;BME280;1284;53.520;10.248;2023-02-12T14:49:15;103004.06;;;11.15;100.00
2549;BME280;1284;53.520;10.248;2023-02-12T14:51:40;103010.47;;;11.19;100.00
2549;BME280;1284;53.520;10.248;2023-02-12T14:54:16;103014.94;;;11.23;100.00
2549;BME280;1284;53.520;10.248;2023-02-12T14:56:48;103007.44;;;10.79;100.00
2549;BME280;1284;53.520;10.248;2023-02-12T14:59:20;103008.63;;;10.73;100.00
2549;BME280;1284;53.520;10.248;2023-02-12T15:01:47;103005.09;;;10.59;100.00
2549;BME280;1284;53.520;10.248;2023-02-12T15:07:26;103009.59;;;10.50;100.00
2549;BME280;1284;53.520;10.248;2023-02-12T15:10:18;103008.41;;;10.56;100.00
2549;BME280;1284;53.520;10.248;2023-02-12T15:20:59;103011.66;;;10.85;100.00
2549;BME280;1284;53.520;10.248;2023-02-12T15:23:31;103012.66;;;10.89;100.00
2549;BME280;1284;53.520;10.248;2023-02-12T15:25:58;103009.84;;;10.95;100.00
2549;BME280;1284;53.520;10.248;2023-02-12T15:28:33;103025.41;;;10.84;100.00
2549;BME280;1284;53.520;10.248;2023-02-12T15:31:01;103012.66;;;10.89;100.00
2549;BME280;1284;53.520;10.248;2023-02-12T15:33:31;103010.22;;;10.74;100.00
2549;BME280;1284;53.520;10.248;2023-02-12T15:35:57;103012.84;;;10.79;100.00
2549;BME280;1284;53.520;10.248;2023-02-12T15:38:35;103019.94;;;10.89;100.00
2549;BME280;1284;53.520;10.248;2023-02-12T15:41:03;103013.03;;;10.97;100.00
2549;BME280;1284;53.520;10.248;2023-02-12T15:43:32;103021.03;;;11.02;100.00
2549;BME280;1284;53.520;10.248;2023-02-12T15:46:03;103017.75;;;11.05;100.00
2549;BME280;1284;53.520;10.248;2023-02-12T15:48:35;103016.63;;;11.06;100.00